createdAt,value
2019-04-13T00:02:38.484Z,100762.97
2019-04-13T00:05:34.826Z,100764.02
2019-04-13T00:08:12.228Z,100762.00
2019-04-13T00:11:04.294Z,100760.09
2019-04-13T00:13:49.680Z,100755.09
2019-04-13T00:16:22.632Z,100757.52
2019-04-13T00:18:55.103Z,100746.26
2019-04-13T00:21:27.757Z,100752.66
2019-04-13T00:24:02.516Z,100746.55
2019-04-13T00:26:35.153Z,100749.30
2019-04-13T00:29:07.637Z,100739.39
2019-04-13T00:31:40.532Z,100740.75
2019-04-13T00:34:13.055Z,100746.74
2019-04-13T00:36:51.406Z,100744.13
2019-04-13T00:39:26.877Z,100740.02
2019-04-13T00:42:01.371Z,100739.08
2019-04-13T00:44:35.461Z,100744.16
2019-04-13T00:47:08.699Z,100737.34
2019-04-13T00:49:43.685Z,100739.48
2019-04-13T00:52:21.645Z,100741.84
2019-04-13T00:54:58.177Z,100739.73
2019-04-13T00:57:31.401Z,100737.52
2019-04-13T01:00:07.865Z,100738.17
2019-04-13T01:02:40.523Z,100734.31
2019-04-13T01:05:15.190Z,100729.55
2019-04-13T01:07:49.134Z,100735.03
2019-04-13T01:10:23.375Z,100730.83
2019-04-13T01:12:58.426Z,100730.28
2019-04-13T01:15:33.796Z,100732.55
2019-04-13T01:18:07.105Z,100728.41
2019-04-13T01:20:39.603Z,100739.34
2019-04-13T01:23:15.489Z,100733.38
2019-04-13T01:25:50.556Z,100731.58
2019-04-13T01:28:24.590Z,100725.94
2019-04-13T01:31:02.281Z,100729.33
2019-04-13T01:33:35.766Z,100724.13
2019-04-13T01:36:09.883Z,100729.75
2019-04-13T01:38:46.274Z,100727.45
2019-04-13T01:41:20.371Z,100728.30
2019-04-13T01:43:56.185Z,100722.98
2019-04-13T01:46:31.799Z,100725.49
2019-04-13T01:49:05.714Z,100721.97
2019-04-13T01:51:43.158Z,100721.00
2019-04-13T01:54:17.643Z,100717.50
2019-04-13T01:56:50.885Z,100711.06
2019-04-13T01:59:27.599Z,100708.35
2019-04-13T02:02:40.535Z,100710.23
2019-04-13T02:05:27.988Z,100711.05
2019-04-13T02:08:26.985Z,100698.02
2019-04-13T02:11:04.997Z,100695.42
2019-04-13T02:13:38.654Z,100703.69
2019-04-13T02:16:13.570Z,100693.91
2019-04-13T02:18:46.411Z,100705.73
2019-04-13T02:21:19.948Z,100707.70
2019-04-13T02:23:53.862Z,100701.41
2019-04-13T02:26:29.844Z,100698.30
2019-04-13T02:29:03.266Z,100700.83
2019-04-13T02:31:37.673Z,100696.11
2019-04-13T02:34:12.078Z,100700.75
2019-04-13T02:36:44.636Z,100704.38
2019-04-13T02:39:19.174Z,100705.17
2019-04-13T02:41:54.402Z,100703.23
2019-04-13T02:44:27.483Z,100703.65
2019-04-13T02:47:02.062Z,100702.72
2019-04-13T02:49:34.616Z,100701.02
2019-04-13T02:52:10.662Z,100711.57
2019-04-13T02:54:45.367Z,100708.96
2019-04-13T02:57:18.813Z,100708.45
2019-04-13T02:59:54.415Z,100705.48
2019-04-13T03:02:27.322Z,100709.55
2019-04-13T03:05:01.289Z,100709.10
2019-04-13T03:07:36.016Z,100702.38
2019-04-13T03:10:11.514Z,100708.22
2019-04-13T03:12:45.803Z,100707.09
2019-04-13T03:15:18.958Z,100706.39
2019-04-13T03:18:01.004Z,100701.33
2019-04-13T03:20:34.633Z,100704.55
2019-04-13T03:23:08.920Z,100704.73
2019-04-13T03:25:42.750Z,100699.83
2019-04-13T03:28:15.270Z,100702.38
2019-04-13T03:30:50.093Z,100702.53
2019-04-13T03:33:25.864Z,100698.73
2019-04-13T03:35:59.843Z,100697.78
2019-04-13T03:38:33.310Z,100698.59
2019-04-13T03:41:14.866Z,100698.32
2019-04-13T03:43:48.076Z,100696.67
2019-04-13T03:46:21.767Z,100700.64
2019-04-13T03:48:56.639Z,100704.09
2019-04-13T03:51:29.838Z,100702.38
2019-04-13T03:54:02.323Z,100700.60
2019-04-13T03:56:36.564Z,100702.25
2019-04-13T03:59:11.323Z,100696.47
2019-04-13T04:01:45.605Z,100698.14
2019-04-13T04:04:19.379Z,100693.15
2019-04-13T04:06:53.410Z,100702.70
2019-04-13T04:09:28.111Z,100698.97
2019-04-13T04:12:02.331Z,100696.14
2019-04-13T04:14:36.791Z,100696.83
2019-04-13T04:17:10.479Z,100693.71
2019-04-13T04:19:44.247Z,100699.05
2019-04-13T04:22:18.912Z,100700.50
2019-04-13T04:24:51.991Z,100699.48
2019-04-13T04:27:24.461Z,100703.19
2019-04-13T04:29:58.952Z,100701.00
2019-04-13T04:32:31.455Z,100700.78
2019-04-13T04:35:06.960Z,100707.02
2019-04-13T04:37:42.289Z,100703.02
2019-04-13T04:40:15.026Z,100699.87
2019-04-13T04:42:49.489Z,100706.05
2019-04-13T04:45:23.909Z,100705.91
2019-04-13T04:48:00.466Z,100705.39
2019-04-13T04:50:38.066Z,100704.91
2019-04-13T04:53:12.202Z,100701.81
2019-04-13T04:55:45.775Z,100708.72
2019-04-13T04:58:30.123Z,100706.48
2019-04-13T05:01:02.843Z,100711.86
2019-04-13T05:03:37.667Z,100708.42
2019-04-13T05:06:12.698Z,100709.59
2019-04-13T05:08:46.526Z,100707.67
2019-04-13T05:11:20.728Z,100712.09
2019-04-13T05:13:56.798Z,100707.84
2019-04-13T05:16:31.306Z,100709.32
2019-04-13T05:19:10.057Z,100713.27
2019-04-13T05:21:42.709Z,100722.19
2019-04-13T05:24:15.323Z,100718.72
2019-04-13T05:26:48.286Z,100721.61
2019-04-13T05:29:23.450Z,100719.16
2019-04-13T05:31:58.495Z,100719.67
2019-04-13T05:34:31.324Z,100726.30
2019-04-13T05:37:04.641Z,100722.84
2019-04-13T05:39:38.940Z,100722.69
2019-04-13T05:42:14.518Z,100724.77
2019-04-13T05:44:47.789Z,100731.19
2019-04-13T05:47:21.983Z,100731.19
2019-04-13T05:49:57.540Z,100734.02
2019-04-13T05:52:30.963Z,100733.56
2019-04-13T05:55:06.769Z,100737.06
2019-04-13T05:57:40.314Z,100739.95
2019-04-13T06:00:15.897Z,100741.99
2019-04-13T06:03:00.337Z,100733.54
2019-04-13T06:05:32.958Z,100741.45
2019-04-13T06:08:08.945Z,100736.98
2019-04-13T06:10:42.529Z,100737.58
2019-04-13T06:13:17.343Z,100735.84
2019-04-13T06:15:50.323Z,100743.10
2019-04-13T06:18:23.569Z,100743.23
2019-04-13T06:20:56.909Z,100743.25
2019-04-13T06:23:31.625Z,100746.55
2019-04-13T06:26:06.504Z,100750.69
2019-04-13T06:28:48.653Z,100749.11
2019-04-13T06:31:49.402Z,100749.42
2019-04-13T06:34:39.800Z,100752.32
2019-04-13T06:37:13.389Z,100749.19
2019-04-13T06:39:47.872Z,100753.41
2019-04-13T06:42:20.676Z,100751.87
2019-04-13T06:44:55.882Z,100745.73
2019-04-13T06:47:32.383Z,100741.17
2019-04-13T06:50:08.963Z,100737.67
2019-04-13T06:52:45.215Z,100728.13
2019-04-13T06:55:20.438Z,100734.91
2019-04-13T06:58:00.840Z,100736.31
2019-04-13T07:00:33.584Z,100730.66
2019-04-13T07:03:06.683Z,100736.65
2019-04-13T07:05:42.293Z,100733.95
2019-04-13T07:08:38.378Z,100732.51
2019-04-13T07:11:28.899Z,100733.42
2019-04-13T07:14:03.653Z,100728.32
2019-04-13T07:16:44.152Z,100725.74
2019-04-13T07:19:18.208Z,100725.78
2019-04-13T07:21:53.187Z,100722.87
2019-04-13T07:24:29.635Z,100728.73
2019-04-13T07:27:10.049Z,100714.22
2019-04-13T07:29:43.989Z,100724.42
2019-04-13T07:32:19.812Z,100710.80
2019-04-13T07:34:53.361Z,100718.45
2019-04-13T07:37:36.631Z,100726.59
2019-04-13T07:40:13.639Z,100727.62
2019-04-13T07:42:48.097Z,100713.11
2019-04-13T07:45:31.627Z,100721.64
2019-04-13T07:48:16.993Z,100721.47
2019-04-13T07:51:01.718Z,100725.11
2019-04-13T07:53:37.212Z,100713.00
2019-04-13T07:56:09.809Z,100724.67
2019-04-13T07:58:47.089Z,100720.67
2019-04-13T08:01:23.271Z,100711.59
2019-04-13T08:03:56.783Z,100709.33
2019-04-13T08:06:31.727Z,100717.04
2019-04-13T08:09:06.167Z,100717.39
2019-04-13T08:11:38.737Z,100714.44
2019-04-13T08:14:18.347Z,100716.13
2019-04-13T08:16:50.896Z,100703.16
2019-04-13T08:19:24.627Z,100715.97
2019-04-13T08:21:58.969Z,100714.77
2019-04-13T08:24:33.727Z,100724.27
2019-04-13T08:27:07.650Z,100715.39
2019-04-13T08:29:44.364Z,100715.13
2019-04-13T08:32:17.948Z,100711.36
2019-04-13T08:34:50.874Z,100698.67
2019-04-13T08:37:23.792Z,100701.17
2019-04-13T08:40:02.529Z,100707.11
2019-04-13T08:42:35.626Z,100706.60
2019-04-13T08:45:12.663Z,100713.78
2019-04-13T08:47:46.027Z,100712.58
2019-04-13T08:50:19.592Z,100709.28
2019-04-13T08:52:52.506Z,100710.22
2019-04-13T08:55:25.864Z,100704.95
2019-04-13T08:57:59.174Z,100710.48
2019-04-13T09:00:33.291Z,100703.06
2019-04-13T09:03:06.171Z,100706.12
2019-04-13T09:05:38.759Z,100709.18
2019-04-13T09:08:12.900Z,100701.41
2019-04-13T09:10:57.952Z,100704.48
2019-04-13T09:13:32.640Z,100701.61
2019-04-13T09:16:06.512Z,100702.74
2019-04-13T09:19:22.951Z,100696.41
2019-04-13T09:22:20.694Z,100691.17
2019-04-13T09:24:55.131Z,100700.20
2019-04-13T09:27:30.942Z,100701.77
2019-04-13T09:30:15.001Z,100707.98
2019-04-13T09:32:47.746Z,100698.81
2019-04-13T09:35:25.300Z,100704.44
2019-04-13T09:37:58.987Z,100695.63
2019-04-13T09:40:31.621Z,100695.45
2019-04-13T09:43:21.347Z,100706.02
2019-04-13T09:45:55.045Z,100699.88
2019-04-13T09:48:28.105Z,100699.19
2019-04-13T09:51:00.778Z,100700.09
2019-04-13T09:53:33.306Z,100700.47
2019-04-13T09:56:07.007Z,100692.38
2019-04-13T09:58:39.564Z,100696.51
2019-04-13T10:01:12.091Z,100695.60
2019-04-13T10:03:46.350Z,100687.26
2019-04-13T10:06:19.110Z,100681.70
2019-04-13T10:08:56.086Z,100684.84
2019-04-13T10:11:36.457Z,100686.95
2019-04-13T10:14:19.591Z,100671.05
2019-04-13T10:16:59.931Z,100689.58
2019-04-13T10:19:34.576Z,100685.16
2019-04-13T10:22:07.319Z,100674.07
2019-04-13T10:24:40.169Z,100677.98
2019-04-13T10:27:13.171Z,100675.25
2019-04-13T10:29:49.633Z,100680.42
2019-04-13T10:32:23.465Z,100680.02
2019-04-13T10:34:56.507Z,100679.72
2019-04-13T10:37:29.229Z,100678.83
2019-04-13T10:40:01.862Z,100678.23
2019-04-13T10:42:36.795Z,100672.89
2019-04-13T10:45:31.223Z,100672.59
2019-04-13T10:48:36.352Z,100671.33
2019-04-13T10:51:21.840Z,100663.73
2019-04-13T10:53:56.940Z,100664.88
2019-04-13T10:56:29.850Z,100663.21
2019-04-13T10:59:02.458Z,100658.75
2019-04-13T11:01:36.129Z,100648.70
2019-04-13T11:04:09.227Z,100644.77
2019-04-13T11:06:41.899Z,100646.86
2019-04-13T11:09:21.291Z,100646.14
2019-04-13T11:11:54.730Z,100643.38
2019-04-13T11:14:29.850Z,100643.75
2019-04-13T11:17:06.557Z,100640.81
2019-04-13T11:19:41.419Z,100645.56
2019-04-13T11:22:21.566Z,100634.25
2019-04-13T11:24:55.113Z,100633.75
2019-04-13T11:27:28.115Z,100622.30
2019-04-13T11:30:08.063Z,100615.03
2019-04-13T11:32:41.638Z,100619.75
2019-04-13T11:35:15.818Z,100617.75
2019-04-13T11:37:48.935Z,100622.77
2019-04-13T11:40:22.104Z,100618.86
2019-04-13T11:43:02.442Z,100621.27
2019-04-13T11:45:41.898Z,100614.75
2019-04-13T11:48:22.302Z,100608.94
2019-04-13T11:50:59.655Z,100606.86
2019-04-13T11:53:33.105Z,100613.96
2019-04-13T11:56:06.902Z,100611.31
2019-04-13T11:58:39.502Z,100609.72
2019-04-13T12:01:30.135Z,100597.53
2019-04-13T12:04:14.008Z,100606.38
2019-04-13T12:07:25.071Z,100594.02
2019-04-13T12:10:21.775Z,100592.64
2019-04-13T12:13:20.473Z,100592.65
2019-04-13T12:16:08.224Z,100588.67
2019-04-13T12:18:46.615Z,100578.26
2019-04-13T12:21:42.445Z,100589.91
2019-04-13T12:24:21.606Z,100589.61
2019-04-13T12:26:55.616Z,100597.73
2019-04-13T12:29:31.620Z,100589.41
2019-04-13T12:32:14.080Z,100598.25
2019-04-13T12:34:48.185Z,100593.42
2019-04-13T12:37:21.092Z,100588.09
2019-04-13T12:40:12.330Z,100595.04
2019-04-13T12:42:45.442Z,100584.00
2019-04-13T12:45:18.484Z,100595.05
2019-04-13T12:47:54.763Z,100588.58
2019-04-13T12:50:33.206Z,100595.14
2019-04-13T12:53:10.268Z,100586.70
2019-04-13T12:55:42.908Z,100579.36
2019-04-13T12:58:22.890Z,100593.50
2019-04-13T13:01:12.527Z,100584.69
2019-04-13T13:03:46.348Z,100588.12
2019-04-13T13:06:25.359Z,100587.31
2019-04-13T13:09:00.137Z,100590.17
2019-04-13T13:11:34.448Z,100597.31
2019-04-13T13:14:08.284Z,100592.91
2019-04-13T13:16:46.100Z,100599.57
2019-04-13T13:19:19.204Z,100593.51
2019-04-13T13:21:52.146Z,100596.85
2019-04-13T13:24:24.871Z,100596.21
2019-04-13T13:27:02.072Z,100588.72
2019-04-13T13:29:35.920Z,100582.86
2019-04-13T13:32:08.727Z,100584.73
2019-04-13T13:34:43.842Z,100586.96
2019-04-13T13:37:16.636Z,100584.66
2019-04-13T13:39:50.723Z,100580.97
2019-04-13T13:42:23.557Z,100582.22
2019-04-13T13:44:56.719Z,100584.61
2019-04-13T13:47:32.467Z,100586.54
2019-04-13T13:50:07.897Z,100591.16
2019-04-13T13:52:40.592Z,100590.08
2019-04-13T13:55:14.271Z,100581.59
2019-04-13T13:57:53.631Z,100581.62
2019-04-13T14:00:40.788Z,100587.64
2019-04-13T14:03:13.729Z,100583.88
2019-04-13T14:05:48.324Z,100583.84
2019-04-13T14:08:21.830Z,100580.64
2019-04-13T14:10:54.803Z,100565.95
2019-04-13T14:13:29.767Z,100586.44
2019-04-13T14:16:02.670Z,100584.49
2019-04-13T14:18:35.630Z,100585.77
2019-04-13T14:21:15.502Z,100583.38
2019-04-13T14:23:58.306Z,100583.41
2019-04-13T14:26:37.295Z,100579.14
2019-04-13T14:29:11.379Z,100571.27
2019-04-13T14:31:44.220Z,100579.86
2019-04-13T14:34:17.647Z,100576.50
2019-04-13T14:36:50.991Z,100571.46
2019-04-13T14:39:23.767Z,100572.43
2019-04-13T14:41:58.890Z,100565.80
2019-04-13T14:44:33.419Z,100562.80
2019-04-13T14:47:11.581Z,100565.16
2019-04-13T14:49:48.871Z,100555.16
2019-04-13T14:52:26.645Z,100559.14
2019-04-13T14:55:02.564Z,100551.02
2019-04-13T14:57:39.659Z,100543.88
2019-04-13T15:00:21.086Z,100544.72
2019-04-13T15:03:00.197Z,100543.41
2019-04-13T15:05:33.784Z,100544.80
2019-04-13T15:08:10.660Z,100540.88
2019-04-13T15:10:46.991Z,100544.17
2019-04-13T15:13:23.401Z,100542.04
2019-04-13T15:15:57.525Z,100539.84
2019-04-13T15:18:50.261Z,100537.38
2019-04-13T15:21:37.728Z,100548.47
2019-04-13T15:24:21.017Z,100546.42
2019-04-13T15:26:54.283Z,100542.37
2019-04-13T15:29:40.563Z,100539.06
2019-04-13T15:32:22.850Z,100542.30
2019-04-13T15:34:57.895Z,100546.95
2019-04-13T15:37:43.024Z,100542.64
2019-04-13T15:40:23.427Z,100545.42
2019-04-13T15:43:04.587Z,100531.80
2019-04-13T15:45:48.991Z,100533.47
2019-04-13T15:48:25.945Z,100539.38
2019-04-13T15:51:06.013Z,100546.04
2019-04-13T15:53:45.161Z,100548.93
2019-04-13T15:56:19.512Z,100548.56
2019-04-13T15:58:55.331Z,100554.93
2019-04-13T16:01:32.654Z,100558.98
2019-04-13T16:04:05.811Z,100549.76
2019-04-13T16:06:46.354Z,100551.51
2019-04-13T16:09:49.774Z,100543.14
2019-04-13T16:12:25.555Z,100540.75
2019-04-13T16:14:59.545Z,100540.25
2019-04-13T16:17:33.791Z,100537.55
2019-04-13T16:20:07.622Z,100543.97
2019-04-13T16:22:42.958Z,100541.84
2019-04-13T16:25:16.849Z,100544.34
2019-04-13T16:28:04.314Z,100543.86
2019-04-13T16:30:57.977Z,100552.45
2019-04-13T16:33:52.700Z,100548.35
2019-04-13T16:36:33.307Z,100549.17
2019-04-13T16:39:13.457Z,100544.29
2019-04-13T16:42:02.680Z,100544.50
2019-04-13T16:44:47.056Z,100542.47
2019-04-13T16:47:39.488Z,100536.13
2019-04-13T16:50:33.084Z,100537.55
2019-04-13T16:53:28.757Z,100535.87
2019-04-13T16:56:12.411Z,100528.54
2019-04-13T16:58:57.947Z,100539.92
2019-04-13T17:01:45.956Z,100541.77
2019-04-13T17:04:31.153Z,100542.37
2019-04-13T17:07:09.165Z,100546.32
2019-04-13T17:16:16.996Z,100547.11
2019-04-13T17:19:03.373Z,100548.38
2019-04-13T17:21:58.807Z,100548.06
2019-04-13T17:24:51.526Z,100548.08
2019-04-13T17:27:30.157Z,100549.75
2019-04-13T17:30:13.265Z,100550.27
2019-04-13T17:32:54.181Z,100555.34
2019-04-13T17:36:02.655Z,100555.80
2019-04-13T17:38:55.809Z,100556.30
2019-04-13T17:41:40.981Z,100546.64
2019-04-13T17:44:24.592Z,100552.44
2019-04-13T17:47:16.664Z,100545.30
2019-04-13T17:49:57.198Z,100545.04
2019-04-13T17:52:55.002Z,100553.25
2019-04-13T17:55:39.770Z,100559.63
2019-04-13T17:58:33.325Z,100559.84
2019-04-13T18:01:33.186Z,100562.36
2019-04-13T18:04:45.749Z,100562.06
2019-04-13T18:07:43.558Z,100569.88
2019-04-13T18:10:32.758Z,100568.72
2019-04-13T18:13:45.213Z,100570.03
2019-04-13T18:16:32.195Z,100571.94
2019-04-13T18:19:14.686Z,100580.17
2019-04-13T18:21:55.774Z,100583.08
2019-04-13T18:24:38.937Z,100587.73
2019-04-13T18:27:13.329Z,100586.72
2019-04-13T18:29:57.147Z,100590.45
2019-04-13T18:32:42.797Z,100598.73
2019-04-13T18:35:19.051Z,100597.96
2019-04-13T18:37:52.190Z,100592.80
2019-04-13T18:40:24.955Z,100597.19
2019-04-13T18:43:09.201Z,100602.34
2019-04-13T18:45:49.438Z,100599.71
2019-04-13T18:48:22.884Z,100603.84
2019-04-13T18:50:56.241Z,100597.30
2019-04-13T18:53:29.968Z,100601.23
2019-04-13T18:56:10.263Z,100601.70
2019-04-13T18:58:47.896Z,100600.02
2019-04-13T19:01:28.916Z,100605.02
2019-04-13T19:04:05.037Z,100602.20
2019-04-13T19:06:39.316Z,100603.69
2019-04-13T19:09:20.474Z,100609.46
2019-04-13T19:12:01.750Z,100615.77
2019-04-13T19:14:35.569Z,100618.33
2019-04-13T19:17:15.277Z,100618.55
2019-04-13T19:19:48.630Z,100622.61
2019-04-13T19:22:21.570Z,100622.74
2019-04-13T19:24:54.272Z,100626.52
2019-04-13T19:27:28.096Z,100617.77
2019-04-13T19:30:05.204Z,100627.34
2019-04-13T19:32:43.763Z,100630.84
2019-04-13T19:35:21.849Z,100635.91
2019-04-13T19:37:56.018Z,100633.06
2019-04-13T19:40:29.637Z,100627.83
2019-04-13T19:43:02.377Z,100624.17
2019-04-13T19:45:35.447Z,100628.27
2019-04-13T19:48:09.411Z,100630.25
2019-04-13T19:50:42.863Z,100624.90
2019-04-13T19:53:25.445Z,100621.33
2019-04-13T19:56:06.278Z,100617.59
2019-04-13T19:58:39.988Z,100612.91
2019-04-13T20:01:16.503Z,100612.38
2019-04-13T20:04:05.746Z,100610.07
2019-04-13T20:06:42.766Z,100610.72
2019-04-13T20:09:16.089Z,100611.88
2019-04-13T20:11:48.727Z,100614.16
2019-04-13T20:14:22.858Z,100615.17
2019-04-13T20:16:56.351Z,100615.94
2019-04-13T20:19:29.119Z,100614.61
2019-04-13T20:22:03.003Z,100616.55
2019-04-13T20:24:39.968Z,100615.69
2019-04-13T20:27:15.259Z,100608.75
2019-04-13T20:29:48.897Z,100615.48
2019-04-13T20:32:23.114Z,100606.90
2019-04-13T20:34:57.731Z,100605.30
2019-04-13T20:37:33.843Z,100603.78
2019-04-13T20:40:24.803Z,100604.00
2019-04-13T20:42:59.097Z,100608.05
2019-04-13T20:45:33.895Z,100610.73
2019-04-13T20:48:12.335Z,100615.73
2019-04-13T20:50:50.169Z,100608.46
2019-04-13T20:53:24.885Z,100617.46
2019-04-13T20:55:58.913Z,100610.73
2019-04-13T20:58:32.113Z,100613.97
2019-04-13T21:01:08.250Z,100608.75
2019-04-13T21:03:44.750Z,100608.12
2019-04-13T21:06:28.333Z,100609.14
2019-04-13T21:09:02.941Z,100607.20
2019-04-13T21:11:42.075Z,100600.25
2019-04-13T21:14:25.180Z,100606.59
2019-04-13T21:17:02.910Z,100605.80
2019-04-13T21:19:37.063Z,100601.33
2019-04-13T21:22:11.570Z,100600.20
2019-04-13T21:24:45.835Z,100604.41
2019-04-13T21:27:20.512Z,100599.34
2019-04-13T21:29:56.771Z,100603.86
2019-04-13T21:32:35.707Z,100602.45
2019-04-13T21:35:14.278Z,100606.44
2019-04-13T21:37:48.744Z,100605.92
2019-04-13T21:40:27.337Z,100609.19
2019-04-13T21:43:02.052Z,100607.88
2019-04-13T21:45:36.433Z,100603.42
2019-04-13T21:48:11.639Z,100600.66
2019-04-13T21:50:58.787Z,100598.47
2019-04-13T21:53:38.206Z,100605.14
2019-04-13T21:56:12.269Z,100600.39
2019-04-13T21:58:49.533Z,100598.26
2019-04-13T22:01:58.395Z,100598.00
2019-04-13T22:04:32.713Z,100594.34
2019-04-13T22:07:07.201Z,100589.61
2019-04-13T22:09:41.261Z,100588.69
2019-04-13T22:12:15.474Z,100587.44
2019-04-13T22:14:56.689Z,100588.59
2019-04-13T22:17:33.863Z,100586.37
2019-04-13T22:20:08.020Z,100583.63
2019-04-13T22:22:41.035Z,100591.66
2019-04-13T22:25:14.546Z,100592.38
2019-04-13T22:27:55.681Z,100592.69
2019-04-13T22:30:45.180Z,100598.65
2019-04-13T22:33:17.653Z,100600.02
2019-04-13T22:35:58.542Z,100595.70
2019-04-13T22:38:31.015Z,100598.64
2019-04-13T22:41:04.895Z,100604.47
2019-04-13T22:43:39.833Z,100600.86
2019-04-13T22:46:13.059Z,100606.55
2019-04-13T22:49:10.645Z,100606.75
2019-04-13T22:52:06.460Z,100604.83
2019-04-13T22:54:47.858Z,100605.56
2019-04-13T22:57:30.460Z,100598.23
2019-04-13T23:00:14.726Z,100597.23
2019-04-13T23:02:51.867Z,100601.39
2019-04-13T23:05:24.683Z,100597.02
2019-04-13T23:08:00.920Z,100602.41
2019-04-13T23:10:33.497Z,100604.69
2019-04-13T23:13:06.219Z,100610.17
2019-04-13T23:15:41.028Z,100612.73
2019-04-13T23:18:16.963Z,100606.67
2019-04-13T23:20:49.662Z,100606.98
2019-04-13T23:23:24.400Z,100602.98
2019-04-13T23:25:57.312Z,100603.53
2019-04-13T23:28:32.077Z,100603.85
2019-04-13T23:31:06.313Z,100599.42
2019-04-13T23:33:39.077Z,100598.81
2019-04-13T23:36:13.598Z,100590.43
2019-04-13T23:38:46.815Z,100597.19
2019-04-13T23:41:19.437Z,100593.45
2019-04-13T23:43:51.955Z,100592.64
2019-04-13T23:46:27.009Z,100586.07
2019-04-13T23:48:59.519Z,100589.09
2019-04-13T23:51:33.953Z,100582.64
2019-04-13T23:54:08.619Z,100582.38
2019-04-13T23:56:56.368Z,100581.65
2019-04-13T23:59:37.148Z,100583.03
